Park City, UT

2:12 PM MST on November 25, 2014 (GMT -0700)
Silver Summit | Change Station
CLOSE
Current Station
Personal Weather Station
Location: Park City, UT
Elevation: 6568 ft
Nearby Weather Stations

Elev 6568 ft 40.71 °N, 111.49 °W | Updated 3 minutes ago

Overcast
Overcast
35.2 °F
Feels Like 35 °F
N
1.6
Wind Variable Wind from North
Gusts 9.8 mph

Today
High -- | Low -- °F
--% Chance of Precip.
Yesterday
High -- | Low -- °F
Precip. -- in
7:24 AM 5:01 PM
Waxing Crescent, 14% visible
Pressure 30.31 in
Visibility 10.0 miles
Clouds Scattered Clouds 3300 ft
Scattered Clouds 4000 ft
Overcast 4800 ft
Windchill 35 °F
Dew Point 25 °F
Humidity 67%
Rainfall 0.04 in
Snow Depth Not available.
UV 1 out of 12
Pollen .10 out of 12
Air Quality Not available.
Flu Activity Not available.
METAR K36U 252055Z AUTO 00000KT 10SM SCT033 SCT040 OVC048 03/M06 A3031 RMK AO2

More Conditions Fewer Conditions

Pressure 30.31 in
Visibility 10.0 miles
Clouds Scattered Clouds 3300 ft
Scattered Clouds 4000 ft
Overcast 4800 ft
Windchill 35 °F
Dew Point 25 °F
Humidity 67%
Rainfall 0.04 in
Snow Depth Not available.
UV 1 out of 12
Pollen .10 out of 12
Air Quality Not available.
Flu Activity Not available.
METAR K36U 252055Z AUTO 00000KT 10SM SCT033 SCT040 OVC048 03/M06 A3031 RMK AO2

More Conditions Fewer Conditions

10-Day Weather Forecast

Almanac

Astronomy

Nov. 25, 2014 Rise Set
Actual Time
Civil Twilight
Nautical Twilight
Astronomical Twilight
Moon
Length of Visible Light
Length of Day
Tomorrow will be .
, % of the Moon is Illuminated

Today's Extremes

State Highs State Lows

Community

WunderPhotos

Upload Photos

1,773,588 photos uploaded!

WunderBlogs® & News

Nearby

Air Quality

  Air Quality AQ Index Pollutant
Not available.

Snow Depth

Station Depth Elevation

Earthquake Activity

City Distance Mag. Time & Date
Minimum magnitude displayed is 2.5.

Coastal Water Temperatures

Place Temperature

Nearby Weather Stations